Eviapetrol II — SY6858 — position and weather

sailwx.info

Track history (hours):
 
Tides and Currents Weather Stations Pressure Air Temp Water Temp Dewpoint Dewpoint Depression Visibility Wind Speed Wind Dir Waves Ship Positions

Eviapetrol II

Last reported at 2017-Jan-18 08:28 UTC. Time now 2017-Jan-20 20:15 UTC.
Position N 40°15' E 026°07'.

Length 78 m; draft 5.2 m.

Type: Tanker. MMSI: 240493000.

Date/timePositionNaut miles runAvg speedWind from/ knotsBaromVisibWave heightAir tempDewpointWater temp
2017-Jan-18 08:28N 40°15' E 026°07'173 9.4
2017-Jan-17 14:06N 37°45' E 024°17'23 9.1
2017-Jan-17 11:32N 37°38' E 023°49'9 8.7
2017-Jan-17 10:33N 37°43' E 023°40'9 9.5
2017-Jan-17 09:33N 37°52' E 023°35'8 8.1
2017-Jan-17 08:33N 37°60' E 023°33'3 3.0
2017-Jan-17 07:33N 38°02' E 023°36'0 0.0
2017-Jan-17 06:20N 38°02' E 023°36'0 0.0
2017-Jan-17 05:32N 38°02' E 023°36'0 0.0
2017-Jan-17 04:33N 38°02' E 023°36'0 0.0
2017-Jan-17 03:32N 38°02' E 023°36'0 0.0
2017-Jan-17 02:32N 38°02' E 023°36'0 0.0
2017-Jan-17 01:30N 38°02' E 023°36'0 0.0
2017-Jan-17 00:33N 38°02' E 023°36'0 0.0
2017-Jan-16 23:33N 38°02' E 023°36'0 0.0
2017-Jan-16 22:33N 38°02' E 023°36'0 0.0
2017-Jan-16 21:32N 38°02' E 023°36'0 0.0
2017-Jan-16 20:33N 38°02' E 023°36'0 0.0
2017-Jan-16 19:33N 38°02' E 023°36'0 0.0
2017-Jan-16 18:33N 38°02' E 023°36'0 0.0
2017-Jan-16 17:27N 38°02' E 023°36'1 1.6
2017-Jan-16 16:34N 38°01' E 023°34'6 6.5
2017-Jan-16 15:34N 37°60' E 023°26'8 8.4
2017-Jan-16 14:34N 37°55' E 023°17'1010.1
2017-Jan-16 13:33N 37°53' E 023°04'27 8.3
2017-Jan-16 10:15N 38°08' E 022°35'4 0.1
2017-Jan-14 11:23N 38°09' E 022°31'9 9.7
2017-Jan-14 10:30N 38°05' E 022°40'19 9.1
2017-Jan-14 08:24N 37°55' E 023°01'1 0.5
2017-Jan-14 07:15N 37°55' E 023°01'6 8.6
2017-Jan-14 06:33N 37°54' E 023°09'1010.0
2017-Jan-14 05:33N 37°56' E 023°21'6 6.4
2017-Jan-14 04:33N 38°00' E 023°27'5 5.1
2017-Jan-14 03:33N 38°01' E 023°34'2 0.4
2017-Jan-13 23:33N 38°02' E 023°36'0 0.0
2017-Jan-13 22:31N 38°02' E 023°36'0 0.0
2017-Jan-13 21:33N 38°02' E 023°36'0 0.0
2017-Jan-13 20:33N 38°02' E 023°36'0 0.0
2017-Jan-13 19:33N 38°02' E 023°36'0 0.0
2017-Jan-13 18:33N 38°02' E 023°36'0 0.0
2017-Jan-13 17:33N 38°02' E 023°36'0 0.0
2017-Jan-13 16:33N 38°02' E 023°36'3 2.6
2017-Jan-13 15:33N 38°01' E 023°32'0 0.0
2017-Jan-13 12:05N 38°01' E 023°32'0 0.1
2017-Jan-13 11:34N 38°01' E 023°32'0 0.0
2017-Jan-13 10:33N 38°01' E 023°32'6 6.2
2017-Jan-13 09:33N 37°56' E 023°36'7 6.8
2017-Jan-13 08:33N 37°50' E 023°41'1010.2
2017-Jan-13 07:33N 37°41' E 023°46'128 9.9
2017-Jan-12 18:33N 38°45' E 026°07'1010.2
2017-Jan-12 17:33N 38°51' E 026°18'1010.4
2017-Jan-12 16:33N 38°55' E 026°30'10 9.5
2017-Jan-12 15:33N 39°02' E 026°38'8 0.9
2017-Jan-12 06:10N 39°10' E 026°32'2 2.9
2017-Jan-12 05:33N 39°11' E 026°32'2 0.3
2017-Jan-11 23:13N 39°12' E 026°30'0 0.0
2017-Jan-11 22:28N 39°12' E 026°30'2 0.2
2017-Jan-11 09:18N 39°11' E 026°32'2 0.6
2017-Jan-11 06:33N 39°10' E 026°33'1 1.3
2017-Jan-11 05:29N 39°09' E 026°34'0 0.0
2017-Jan-10 15:10N 39°09' E 026°34'0 0.0
2017-Jan-10 09:13N 39°09' E 026°34'6 8.3
2017-Jan-10 08:30N 39°14' E 026°31'9 9.0
2017-Jan-10 07:32N 39°22' E 026°25'82 2.6
2017-Jan-08 23:33N 40°23' E 025°13'7 7.0
2017-Jan-08 22:33N 40°16' E 025°09'7 6.5
2017-Jan-08 21:28N 40°10' E 025°05'  
Track history (hours):
 
Tides and Currents Weather Stations Pressure Air Temp Water Temp Dewpoint Dewpoint Depression Visibility Wind Speed Wind Dir Waves Ship Positions

Eviapetrol II

Last reported at 2017-Jan-18 08:28 UTC. Time now 2017-Jan-20 20:15 UTC.
Position N 40°15' E 026°07'.

Length 78 m; draft 5.2 m.

Type: Tanker. MMSI: 240493000.

Date/timePositionNaut miles runAvg speedWind from/ knotsBaromVisibWave heightAir tempDewpointWater temp
2017-Jan-18 08:28N 40°15' E 026°07'173 9.4
2017-Jan-17 14:06N 37°45' E 024°17'23 9.1
2017-Jan-17 11:32N 37°38' E 023°49'9 8.7
2017-Jan-17 10:33N 37°43' E 023°40'9 9.5
2017-Jan-17 09:33N 37°52' E 023°35'8 8.1
2017-Jan-17 08:33N 37°60' E 023°33'3 3.0
2017-Jan-17 07:33N 38°02' E 023°36'0 0.0
2017-Jan-17 06:20N 38°02' E 023°36'0 0.0
2017-Jan-17 05:32N 38°02' E 023°36'0 0.0
2017-Jan-17 04:33N 38°02' E 023°36'0 0.0
2017-Jan-17 03:32N 38°02' E 023°36'0 0.0
2017-Jan-17 02:32N 38°02' E 023°36'0 0.0
2017-Jan-17 01:30N 38°02' E 023°36'0 0.0
2017-Jan-17 00:33N 38°02' E 023°36'0 0.0
2017-Jan-16 23:33N 38°02' E 023°36'0 0.0
2017-Jan-16 22:33N 38°02' E 023°36'0 0.0
2017-Jan-16 21:32N 38°02' E 023°36'0 0.0
2017-Jan-16 20:33N 38°02' E 023°36'0 0.0
2017-Jan-16 19:33N 38°02' E 023°36'0 0.0
2017-Jan-16 18:33N 38°02' E 023°36'0 0.0
2017-Jan-16 17:27N 38°02' E 023°36'1 1.6
2017-Jan-16 16:34N 38°01' E 023°34'6 6.5
2017-Jan-16 15:34N 37°60' E 023°26'8 8.4
2017-Jan-16 14:34N 37°55' E 023°17'1010.1
2017-Jan-16 13:33N 37°53' E 023°04'27 8.3
2017-Jan-16 10:15N 38°08' E 022°35'4 0.1
2017-Jan-14 11:23N 38°09' E 022°31'9 9.7
2017-Jan-14 10:30N 38°05' E 022°40'19 9.1
2017-Jan-14 08:24N 37°55' E 023°01'1 0.5
2017-Jan-14 07:15N 37°55' E 023°01'6 8.6
2017-Jan-14 06:33N 37°54' E 023°09'1010.0
2017-Jan-14 05:33N 37°56' E 023°21'6 6.4
2017-Jan-14 04:33N 38°00' E 023°27'5 5.1
2017-Jan-14 03:33N 38°01' E 023°34'2 0.4
2017-Jan-13 23:33N 38°02' E 023°36'0 0.0
2017-Jan-13 22:31N 38°02' E 023°36'0 0.0
2017-Jan-13 21:33N 38°02' E 023°36'0 0.0
2017-Jan-13 20:33N 38°02' E 023°36'0 0.0
2017-Jan-13 19:33N 38°02' E 023°36'0 0.0
2017-Jan-13 18:33N 38°02' E 023°36'0 0.0
2017-Jan-13 17:33N 38°02' E 023°36'0 0.0
2017-Jan-13 16:33N 38°02' E 023°36'3 2.6
2017-Jan-13 15:33N 38°01' E 023°32'0 0.0
2017-Jan-13 12:05N 38°01' E 023°32'0 0.1
2017-Jan-13 11:34N 38°01' E 023°32'0 0.0
2017-Jan-13 10:33N 38°01' E 023°32'6 6.2
2017-Jan-13 09:33N 37°56' E 023°36'7 6.8
2017-Jan-13 08:33N 37°50' E 023°41'1010.2
2017-Jan-13 07:33N 37°41' E 023°46'128 9.9
2017-Jan-12 18:33N 38°45' E 026°07'1010.2
2017-Jan-12 17:33N 38°51' E 026°18'1010.4
2017-Jan-12 16:33N 38°55' E 026°30'10 9.5
2017-Jan-12 15:33N 39°02' E 026°38'8 0.9
2017-Jan-12 06:10N 39°10' E 026°32'2 2.9
2017-Jan-12 05:33N 39°11' E 026°32'2 0.3
2017-Jan-11 23:13N 39°12' E 026°30'0 0.0
2017-Jan-11 22:28N 39°12' E 026°30'2 0.2
2017-Jan-11 09:18N 39°11' E 026°32'2 0.6
2017-Jan-11 06:33N 39°10' E 026°33'1 1.3
2017-Jan-11 05:29N 39°09' E 026°34'0 0.0
2017-Jan-10 15:10N 39°09' E 026°34'0 0.0
2017-Jan-10 09:13N 39°09' E 026°34'6 8.3
2017-Jan-10 08:30N 39°14' E 026°31'9 9.0
2017-Jan-10 07:32N 39°22' E 026°25'82 2.6
2017-Jan-08 23:33N 40°23' E 025°13'7 7.0
2017-Jan-08 22:33N 40°16' E 025°09'7 6.5
2017-Jan-08 21:28N 40°10' E 025°05'  

Dump ship's entire track history